createdAt,value
2017-01-20T00:00:28.327Z,99.99
2017-01-20T00:01:28.301Z,99.99
2017-01-20T00:02:28.275Z,99.99
2017-01-20T00:03:28.250Z,99.99
2017-01-20T00:04:28.223Z,99.99
2017-01-20T00:05:28.198Z,99.99
2017-01-20T00:06:28.172Z,99.99
2017-01-20T00:07:28.146Z,99.99
2017-01-20T00:08:28.120Z,99.99
2017-01-20T00:09:28.091Z,99.99
2017-01-20T00:10:28.065Z,99.99
2017-01-20T00:11:28.040Z,99.99
2017-01-20T00:12:28.020Z,99.99
2017-01-20T00:13:27.993Z,99.99
2017-01-20T00:14:27.984Z,99.99
2017-01-20T00:15:27.951Z,99.99
2017-01-20T00:16:27.914Z,99.99
2017-01-20T00:17:27.891Z,99.99
2017-01-20T00:18:27.888Z,99.99
2017-01-20T00:19:27.834Z,99.99
2017-01-20T00:20:27.814Z,99.99
2017-01-20T00:21:27.782Z,99.99
2017-01-20T00:22:27.759Z,99.99
2017-01-20T00:23:27.741Z,99.99
2017-01-20T00:24:27.715Z,99.99
2017-01-20T00:25:27.700Z,99.99
2017-01-20T00:26:27.665Z,99.99
2017-01-20T00:27:27.654Z,99.99
2017-01-20T00:28:27.606Z,99.99
2017-01-20T00:29:27.580Z,99.99
2017-01-20T00:30:27.551Z,99.99
2017-01-20T00:31:27.536Z,99.99
2017-01-20T00:32:27.506Z,99.99
2017-01-20T00:33:27.477Z,99.99
2017-01-20T00:34:27.453Z,99.99
2017-01-20T00:35:27.427Z,99.99
2017-01-20T00:36:27.398Z,99.99
2017-01-20T00:37:27.379Z,99.99
2017-01-20T00:38:27.377Z,99.99
2017-01-20T00:39:27.320Z,99.99
2017-01-20T00:40:27.309Z,99.99
2017-01-20T00:41:27.276Z,99.99
2017-01-20T00:42:27.246Z,99.99
2017-01-20T00:43:27.227Z,99.99
2017-01-20T00:44:27.192Z,99.99
2017-01-20T00:45:27.169Z,99.99
2017-01-20T00:46:27.156Z,99.99
2017-01-20T00:47:27.126Z,99.99
2017-01-20T00:48:27.100Z,99.99
2017-01-20T00:49:27.068Z,99.99
2017-01-20T00:50:27.042Z,99.99
2017-01-20T00:51:27.016Z,99.99
2017-01-20T00:52:26.989Z,99.99
2017-01-20T00:53:26.963Z,99.99
2017-01-20T00:54:26.937Z,99.99
2017-01-20T00:55:26.915Z,99.99
2017-01-20T00:56:26.888Z,99.99
2017-01-20T00:57:26.862Z,99.99
2017-01-20T00:58:26.879Z,99.99
2017-01-20T00:59:26.808Z,99.99
2017-01-20T01:00:26.781Z,99.99
2017-01-20T01:01:26.755Z,99.99
2017-01-20T01:02:26.732Z,99.99
2017-01-20T01:03:26.708Z,99.99
2017-01-20T01:04:26.675Z,99.99
2017-01-20T01:05:26.653Z,99.99
2017-01-20T01:06:26.625Z,99.99
2017-01-20T01:07:26.602Z,99.99
2017-01-20T01:08:26.577Z,99.99
2017-01-20T01:09:26.549Z,99.99
2017-01-20T01:10:26.917Z,99.99
2017-01-20T01:11:26.496Z,99.99
2017-01-20T01:12:26.469Z,99.99
2017-01-20T01:13:26.445Z,99.99
2017-01-20T01:14:26.422Z,99.99
2017-01-20T01:15:26.394Z,99.99
2017-01-20T01:16:26.364Z,99.99
2017-01-20T01:17:26.345Z,99.99
2017-01-20T01:18:26.314Z,99.99
2017-01-20T01:19:26.284Z,99.99
2017-01-20T01:20:26.263Z,99.99
2017-01-20T01:21:26.291Z,99.99
2017-01-20T01:22:26.609Z,99.99
2017-01-20T01:23:26.183Z,99.99
2017-01-20T01:24:26.155Z,99.99
2017-01-20T01:25:26.575Z,99.99
2017-01-20T01:26:26.115Z,99.99
2017-01-20T01:27:26.080Z,99.99
2017-01-20T01:28:26.443Z,99.99
2017-01-20T01:29:26.030Z,99.99
2017-01-20T01:30:26.003Z,99.99
2017-01-20T01:31:25.987Z,99.99
2017-01-20T01:32:25.955Z,99.99
2017-01-20T01:33:25.931Z,99.99
2017-01-20T01:34:25.892Z,99.99
2017-01-20T01:35:25.873Z,99.99
2017-01-20T01:36:25.855Z,99.99
2017-01-20T01:37:25.821Z,99.99
2017-01-20T01:38:25.796Z,99.99
2017-01-20T01:39:25.782Z,99.99
2017-01-20T01:40:25.740Z,99.99
2017-01-20T01:41:25.714Z,99.99
2017-01-20T01:42:25.691Z,99.99
2017-01-20T01:43:25.669Z,99.99
2017-01-20T01:44:25.638Z,99.99
2017-01-20T01:45:25.617Z,99.99
2017-01-20T01:46:25.585Z,99.99
2017-01-20T01:47:25.561Z,99.99
2017-01-20T01:48:25.740Z,99.99
2017-01-20T01:49:25.503Z,99.99
2017-01-20T01:50:25.487Z,99.99
2017-01-20T01:51:25.466Z,99.99
2017-01-20T01:52:25.435Z,99.99
2017-01-20T01:53:25.404Z,99.99
2017-01-20T01:54:25.376Z,99.99
2017-01-20T01:55:25.346Z,99.99
2017-01-20T01:56:25.327Z,99.99
2017-01-20T01:57:25.302Z,99.99
2017-01-20T01:58:25.272Z,99.99
2017-01-20T01:59:25.247Z,99.99
2017-01-20T02:00:25.231Z,99.99
2017-01-20T02:01:25.199Z,99.99
2017-01-20T02:02:25.174Z,99.99
2017-01-20T02:03:25.142Z,99.99
2017-01-20T02:04:25.115Z,99.99
2017-01-20T02:05:25.100Z,99.99
2017-01-20T02:06:25.070Z,99.99
2017-01-20T02:07:25.038Z,99.99
2017-01-20T02:08:25.021Z,99.99
2017-01-20T02:09:24.982Z,99.99
2017-01-20T02:10:24.959Z,99.99
2017-01-20T02:11:24.930Z,99.99
2017-01-20T02:12:24.922Z,99.99
2017-01-20T02:13:24.886Z,99.99
2017-01-20T02:14:24.858Z,99.99
2017-01-20T02:15:24.830Z,99.99
2017-01-20T02:16:24.804Z,99.99
2017-01-20T02:17:24.799Z,99.99
2017-01-20T02:18:24.747Z,99.99
2017-01-20T02:19:24.724Z,99.99
2017-01-20T02:20:24.696Z,99.99
2017-01-20T02:21:24.677Z,99.99
2017-01-20T02:22:24.645Z,99.99
2017-01-20T02:23:24.619Z,99.99
2017-01-20T02:24:24.591Z,99.99
2017-01-20T02:25:24.571Z,99.99
2017-01-20T02:26:24.540Z,99.99
2017-01-20T02:27:24.516Z,99.99
2017-01-20T02:28:24.489Z,99.99
2017-01-20T02:29:24.462Z,99.99
2017-01-20T02:30:24.442Z,99.99
2017-01-20T02:31:24.412Z,99.99
2017-01-20T02:32:24.390Z,99.99
2017-01-20T02:33:24.394Z,99.99
2017-01-20T02:34:24.341Z,99.99
2017-01-20T02:35:24.311Z,99.99
2017-01-20T02:36:24.277Z,99.99
2017-01-20T02:37:24.993Z,99.99
2017-01-20T02:38:24.235Z,99.99
2017-01-20T02:39:24.203Z,99.99
2017-01-20T02:40:24.174Z,99.99
2017-01-20T02:41:24.149Z,99.99
2017-01-20T02:42:24.120Z,99.99
2017-01-20T02:43:24.099Z,99.99
2017-01-20T02:44:24.071Z,99.99
2017-01-20T02:45:24.041Z,99.99
2017-01-20T02:46:24.017Z,99.99
2017-01-20T02:47:23.989Z,99.99
2017-01-20T02:48:23.960Z,99.99
2017-01-20T02:49:23.937Z,99.99
2017-01-20T02:50:23.918Z,99.99
2017-01-20T02:51:23.886Z,99.99
2017-01-20T02:52:23.855Z,99.99
2017-01-20T02:53:23.829Z,99.99
2017-01-20T02:54:23.810Z,99.99
2017-01-20T02:55:23.779Z,99.99
2017-01-20T02:56:23.756Z,99.99
2017-01-20T02:57:23.726Z,99.99
2017-01-20T02:58:23.698Z,99.99
2017-01-20T02:59:23.679Z,99.99
2017-01-20T03:00:23.650Z,99.99
2017-01-20T03:01:23.620Z,99.99
2017-01-20T03:02:23.591Z,99.99
2017-01-20T03:03:23.564Z,99.99
2017-01-20T03:04:23.540Z,99.99
2017-01-20T03:05:23.565Z,99.99
2017-01-20T03:06:23.485Z,99.99
2017-01-20T03:07:23.458Z,99.99
2017-01-20T03:08:23.834Z,99.99
2017-01-20T03:09:23.408Z,99.99
2017-01-20T03:10:23.382Z,99.99
2017-01-20T03:11:23.354Z,99.99
2017-01-20T03:12:23.329Z,99.99
2017-01-20T03:13:23.299Z,99.99
2017-01-20T03:14:23.277Z,99.99
2017-01-20T03:15:23.301Z,99.99
2017-01-20T03:16:23.221Z,99.99
2017-01-20T03:17:23.194Z,99.99
2017-01-20T03:18:23.171Z,99.99
2017-01-20T03:19:23.143Z,99.99
2017-01-20T03:20:23.118Z,99.99
2017-01-20T03:21:23.113Z,99.99
2017-01-20T03:22:23.067Z,99.99
2017-01-20T03:23:23.040Z,99.99
2017-01-20T03:24:23.014Z,99.99
2017-01-20T03:25:22.990Z,99.99
2017-01-20T03:26:23.012Z,99.99
2017-01-20T03:27:22.934Z,99.99
2017-01-20T03:28:22.909Z,99.99
2017-01-20T03:29:22.885Z,99.99
2017-01-20T03:30:22.865Z,99.99
2017-01-20T03:31:22.828Z,99.99
2017-01-20T03:32:22.801Z,99.99
2017-01-20T03:33:22.776Z,99.99
2017-01-20T03:34:22.757Z,99.99
2017-01-20T03:35:22.725Z,99.99
2017-01-20T03:36:22.697Z,99.99
2017-01-20T03:37:22.670Z,99.99
2017-01-20T03:38:22.646Z,99.99
2017-01-20T03:39:22.617Z,99.99
2017-01-20T03:40:22.598Z,99.99
2017-01-20T03:41:22.617Z,99.99
2017-01-20T03:42:22.541Z,99.99
2017-01-20T03:43:22.517Z,99.99
2017-01-20T03:44:22.489Z,99.99
2017-01-20T03:45:22.468Z,99.99
2017-01-20T03:46:22.436Z,99.99
2017-01-20T03:47:22.414Z,99.99
2017-01-20T03:48:22.392Z,99.99
2017-01-20T03:49:22.357Z,99.99
2017-01-20T03:50:22.352Z,99.99
2017-01-20T03:51:22.316Z,99.99
2017-01-20T03:52:22.286Z,99.99
2017-01-20T03:53:22.250Z,99.99
2017-01-20T03:54:22.278Z,99.99
2017-01-20T03:55:22.204Z,99.99
2017-01-20T03:56:22.177Z,99.99
2017-01-20T03:57:22.148Z,99.99
2017-01-20T03:58:22.121Z,99.99
2017-01-20T03:59:22.095Z,99.99
2017-01-20T04:00:22.139Z,99.99
2017-01-20T04:01:22.043Z,99.99
2017-01-20T04:02:22.020Z,99.99
2017-01-20T04:03:22.001Z,99.99
2017-01-20T04:04:21.972Z,99.99
2017-01-20T04:05:21.939Z,99.99
2017-01-20T04:06:21.918Z,99.99
2017-01-20T04:07:21.889Z,99.99
2017-01-20T04:08:21.865Z,99.99
2017-01-20T04:09:21.832Z,99.99
2017-01-20T04:10:21.809Z,99.99
2017-01-20T04:11:21.783Z,99.99
2017-01-20T04:12:21.756Z,99.99
2017-01-20T04:13:21.749Z,99.99
2017-01-20T04:14:21.703Z,99.99
2017-01-20T04:15:21.678Z,99.99
2017-01-20T04:16:21.650Z,99.99
2017-01-20T04:17:21.624Z,99.99
2017-01-20T04:18:21.601Z,99.99
2017-01-20T04:19:21.573Z,99.99
2017-01-20T04:20:21.544Z,99.99
2017-01-20T04:21:21.515Z,99.99
2017-01-20T04:22:21.493Z,99.99
2017-01-20T04:23:21.469Z,99.99
2017-01-20T04:24:21.454Z,99.99
2017-01-20T04:25:21.415Z,99.99
2017-01-20T04:26:21.386Z,99.99
2017-01-20T04:27:21.357Z,99.99
2017-01-20T04:28:21.333Z,99.99
2017-01-20T04:29:21.305Z,99.99
2017-01-20T04:30:21.280Z,99.99
2017-01-20T04:31:21.253Z,99.99
2017-01-20T04:32:21.237Z,99.99
2017-01-20T04:33:21.203Z,99.99
2017-01-20T04:34:21.174Z,99.99
2017-01-20T04:35:21.145Z,99.99
2017-01-20T04:36:21.121Z,99.99
2017-01-20T04:37:21.094Z,99.99
2017-01-20T04:38:21.067Z,99.99
2017-01-20T04:39:21.041Z,99.99
2017-01-20T04:40:21.408Z,99.99
2017-01-20T04:41:20.990Z,99.99
2017-01-20T04:42:21.012Z,99.99
2017-01-20T04:43:20.939Z,99.99
2017-01-20T04:44:20.910Z,99.99
2017-01-20T04:45:20.881Z,99.99
2017-01-20T04:46:20.857Z,99.99
2017-01-20T04:47:20.828Z,99.99
2017-01-20T04:48:20.803Z,99.99
2017-01-20T04:49:20.774Z,99.99
2017-01-20T04:50:20.749Z,99.99
2017-01-20T04:51:21.119Z,99.99
2017-01-20T04:52:20.700Z,99.99
2017-01-20T04:53:20.672Z,99.99
2017-01-20T04:54:20.645Z,99.99
2017-01-20T04:55:20.668Z,99.99
2017-01-20T04:56:20.592Z,99.99
2017-01-20T04:57:20.563Z,99.99
2017-01-20T04:58:20.538Z,99.99
2017-01-20T04:59:20.508Z,99.99
2017-01-20T05:00:20.488Z,99.99
2017-01-20T05:01:20.457Z,99.99
2017-01-20T05:02:20.429Z,99.99
2017-01-20T05:03:20.405Z,99.99
2017-01-20T05:04:20.398Z,99.99
2017-01-20T05:05:20.355Z,99.99
2017-01-20T05:06:20.323Z,99.99
2017-01-20T05:07:20.301Z,99.99
2017-01-20T05:08:20.273Z,99.99
2017-01-20T05:09:20.251Z,99.99
2017-01-20T05:10:20.242Z,99.99
2017-01-20T05:11:20.191Z,99.99
2017-01-20T05:12:20.168Z,99.99
2017-01-20T05:13:20.138Z,99.99
2017-01-20T05:14:20.113Z,99.99
2017-01-20T05:15:20.084Z,99.99
2017-01-20T05:16:20.059Z,99.99
2017-01-20T05:17:20.035Z,99.99
2017-01-20T05:18:20.007Z,99.99
2017-01-20T05:19:19.979Z,99.99
2017-01-20T05:20:19.953Z,99.99
2017-01-20T05:21:19.926Z,99.99
2017-01-20T05:22:19.915Z,99.99
2017-01-20T05:23:19.881Z,99.99
2017-01-20T05:24:19.849Z,99.99
2017-01-20T05:25:19.821Z,99.99
2017-01-20T05:26:19.791Z,99.99
2017-01-20T05:27:19.771Z,99.99
2017-01-20T05:28:19.738Z,99.99
2017-01-20T05:29:19.715Z,99.99
2017-01-20T05:30:19.691Z,99.99
2017-01-20T05:31:19.658Z,99.99
2017-01-20T05:32:19.633Z,99.99
2017-01-20T05:33:19.632Z,99.99
2017-01-20T05:34:19.581Z,99.99
2017-01-20T05:35:19.559Z,99.99
2017-01-20T05:36:19.531Z,99.99
2017-01-20T05:37:19.502Z,99.99
2017-01-20T05:38:19.474Z,99.99
2017-01-20T05:39:19.450Z,99.99
2017-01-20T05:40:19.423Z,99.99
2017-01-20T05:41:19.394Z,99.99
2017-01-20T05:42:19.375Z,99.99
2017-01-20T05:43:19.343Z,99.99
2017-01-20T05:44:19.319Z,99.99
2017-01-20T05:45:19.293Z,99.99
2017-01-20T05:46:19.272Z,99.99
2017-01-20T05:47:19.236Z,99.99
2017-01-20T05:48:19.215Z,99.99
2017-01-20T05:49:19.387Z,99.99
2017-01-20T05:50:19.156Z,99.99
2017-01-20T05:51:19.140Z,99.99
2017-01-20T05:52:19.109Z,99.99
2017-01-20T05:53:19.079Z,99.99
2017-01-20T05:54:19.052Z,99.99
2017-01-20T05:55:19.025Z,99.99
2017-01-20T05:56:18.997Z,99.99
2017-01-20T05:57:18.971Z,99.99
2017-01-20T05:58:18.943Z,99.99
2017-01-20T05:59:18.922Z,99.99
2017-01-20T06:00:18.943Z,99.99
2017-01-20T06:01:18.877Z,99.99
2017-01-20T06:02:18.840Z,99.99
2017-01-20T06:03:18.814Z,99.99
2017-01-20T06:04:18.788Z,99.99
2017-01-20T06:05:18.760Z,99.99
2017-01-20T06:06:18.733Z,99.99
2017-01-20T06:07:18.710Z,99.99
2017-01-20T06:08:18.681Z,99.99
2017-01-20T06:09:18.649Z,99.99
2017-01-20T06:10:18.622Z,99.99
2017-01-20T06:11:18.598Z,99.99
2017-01-20T06:12:18.985Z,99.99
2017-01-20T06:13:18.549Z,99.99
2017-01-20T06:14:18.516Z,99.99
2017-01-20T06:15:18.491Z,99.99
2017-01-20T06:16:18.464Z,99.99
2017-01-20T06:17:18.435Z,99.99
2017-01-20T06:18:18.408Z,99.99
2017-01-20T06:19:18.381Z,99.99
2017-01-20T06:20:18.360Z,99.99
2017-01-20T06:21:18.329Z,99.99
2017-01-20T06:22:18.307Z,99.99
2017-01-20T06:23:18.328Z,99.99
2017-01-20T06:24:18.249Z,99.99
2017-01-20T06:25:18.222Z,99.99
2017-01-20T06:26:18.209Z,99.99
2017-01-20T06:27:18.173Z,99.99
2017-01-20T06:28:18.158Z,99.99
2017-01-20T06:29:18.124Z,99.99
2017-01-20T06:30:18.088Z,99.99
2017-01-20T06:31:18.112Z,99.99
2017-01-20T06:32:18.041Z,99.99
2017-01-20T06:33:18.014Z,99.99
2017-01-20T06:34:18.001Z,99.99
2017-01-20T06:35:17.962Z,99.99
2017-01-20T06:36:17.932Z,99.99
2017-01-20T06:37:17.907Z,99.99
2017-01-20T06:38:17.877Z,99.99
2017-01-20T06:39:17.852Z,99.99
2017-01-20T06:40:17.822Z,99.99
2017-01-20T06:41:17.803Z,99.99
2017-01-20T06:42:17.772Z,99.99
2017-01-20T06:43:17.744Z,99.99
2017-01-20T06:44:17.747Z,99.99
2017-01-20T06:45:17.692Z,99.99
2017-01-20T06:46:17.664Z,99.99
2017-01-20T06:47:17.637Z,99.99
2017-01-20T06:48:17.635Z,99.99
2017-01-20T06:49:17.591Z,99.99
2017-01-20T06:50:17.559Z,99.99
2017-01-20T06:51:17.538Z,99.99
2017-01-20T06:52:17.505Z,99.99
2017-01-20T06:53:17.480Z,99.99
2017-01-20T06:54:17.451Z,99.99
2017-01-20T06:55:17.422Z,99.99
2017-01-20T06:56:17.395Z,99.99
2017-01-20T06:57:17.374Z,99.99
2017-01-20T06:58:17.346Z,99.99
2017-01-20T06:59:17.324Z,99.99
2017-01-20T07:00:17.292Z,99.99
2017-01-20T07:01:17.264Z,99.99
2017-01-20T07:02:17.231Z,99.99
2017-01-20T07:03:17.205Z,99.99
2017-01-20T07:04:17.180Z,99.99
2017-01-20T07:05:17.151Z,99.99
2017-01-20T07:06:17.124Z,99.99
2017-01-20T07:07:17.102Z,99.99
2017-01-20T07:08:17.072Z,99.99
2017-01-20T07:09:17.047Z,99.99
2017-01-20T07:10:17.025Z,99.99
2017-01-20T07:11:16.995Z,99.99
2017-01-20T07:12:16.968Z,99.99
2017-01-20T07:13:16.947Z,99.99
2017-01-20T07:14:16.921Z,99.99
2017-01-20T07:15:16.889Z,99.99
2017-01-20T07:16:16.859Z,99.99
2017-01-20T07:17:16.837Z,99.99
2017-01-20T07:18:16.805Z,99.99
2017-01-20T07:19:16.783Z,99.99
2017-01-20T07:20:16.756Z,99.99
2017-01-20T07:21:17.156Z,99.99
2017-01-20T07:22:16.716Z,99.99
2017-01-20T07:23:16.672Z,99.99
2017-01-20T07:24:16.647Z,99.99
2017-01-20T07:25:16.620Z,99.99
2017-01-20T07:26:16.595Z,99.99
2017-01-20T07:27:16.567Z,99.99
2017-01-20T07:28:16.539Z,99.99
2017-01-20T07:29:16.512Z,99.99
2017-01-20T07:30:16.488Z,99.99
2017-01-20T07:31:16.460Z,99.99
2017-01-20T07:32:16.433Z,99.99
2017-01-20T07:33:16.402Z,99.99
2017-01-20T07:34:16.772Z,99.99
2017-01-20T07:35:16.354Z,99.99
2017-01-20T07:36:16.326Z,99.99
2017-01-20T07:37:16.699Z,99.99
2017-01-20T07:38:16.271Z,99.99
2017-01-20T07:39:16.245Z,99.99
2017-01-20T07:40:16.224Z,99.99
2017-01-20T07:41:16.194Z,99.99
2017-01-20T07:42:16.164Z,99.99
2017-01-20T07:43:16.140Z,99.99
2017-01-20T07:44:16.113Z,99.99
2017-01-20T07:45:16.086Z,99.99
2017-01-20T07:46:16.059Z,99.99
2017-01-20T07:47:16.061Z,99.99
2017-01-20T07:48:16.008Z,99.99
2017-01-20T07:49:16.179Z,99.99
2017-01-20T07:50:15.954Z,99.99
2017-01-20T07:51:15.928Z,99.99
2017-01-20T07:52:15.901Z,99.99
2017-01-20T07:53:15.871Z,99.99
2017-01-20T07:54:15.846Z,99.99
2017-01-20T07:55:15.818Z,99.99
2017-01-20T07:56:15.795Z,99.99
2017-01-20T07:57:15.767Z,99.99
2017-01-20T07:58:15.738Z,99.99
2017-01-20T07:59:15.714Z,99.99
2017-01-20T08:00:15.687Z,99.99
2017-01-20T08:01:15.660Z,99.99
2017-01-20T08:02:15.630Z,99.99
2017-01-20T08:03:15.629Z,99.99
2017-01-20T08:04:15.579Z,99.99
2017-01-20T08:05:15.557Z,99.99
2017-01-20T08:06:15.533Z,99.99
2017-01-20T08:07:15.504Z,99.99
2017-01-20T08:08:15.473Z,99.99
2017-01-20T08:09:15.451Z,99.99
2017-01-20T08:10:15.472Z,99.99
2017-01-20T08:11:15.427Z,99.99
2017-01-20T08:12:15.366Z,99.99
2017-01-20T08:13:15.344Z,99.99
2017-01-20T08:14:15.314Z,99.99
2017-01-20T08:15:15.291Z,99.99
2017-01-20T08:16:15.262Z,99.99
2017-01-20T08:17:15.245Z,99.99
2017-01-20T08:18:15.229Z,99.99
2017-01-20T08:19:15.196Z,99.99
2017-01-20T08:20:15.165Z,99.99
2017-01-20T08:21:15.138Z,99.99
2017-01-20T08:22:15.109Z,99.99
2017-01-20T08:23:15.081Z,99.99
2017-01-20T08:24:15.058Z,99.99
2017-01-20T08:25:15.029Z,99.99
2017-01-20T08:26:15.006Z,99.99
2017-01-20T08:27:14.980Z,99.99
2017-01-20T08:28:14.951Z,99.99
2017-01-20T08:29:14.923Z,99.99
2017-01-20T08:30:14.902Z,99.99
2017-01-20T08:31:14.874Z,99.99
2017-01-20T08:32:14.844Z,99.99
2017-01-20T08:33:14.819Z,99.99
2017-01-20T08:34:14.825Z,99.99
2017-01-20T08:35:14.773Z,99.99
2017-01-20T08:36:14.746Z,99.99
2017-01-20T08:37:14.719Z,99.99
2017-01-20T08:38:14.695Z,99.99
2017-01-20T08:39:14.663Z,99.99
2017-01-20T08:40:14.644Z,99.99
2017-01-20T08:41:14.627Z,99.99
2017-01-20T08:42:14.594Z,99.99
2017-01-20T08:43:14.564Z,99.99
2017-01-20T08:44:14.541Z,99.99
2017-01-20T08:45:14.516Z,99.99
2017-01-20T08:46:14.487Z,99.99
2017-01-20T08:47:14.460Z,99.99
2017-01-20T08:48:14.440Z,99.99
2017-01-20T08:49:14.439Z,99.99
2017-01-20T08:50:14.390Z,99.99
2017-01-20T08:51:14.368Z,99.99
2017-01-20T08:52:14.341Z,99.99
2017-01-20T08:53:14.313Z,99.99
2017-01-20T08:54:14.290Z,99.99
2017-01-20T08:55:14.266Z,99.99
2017-01-20T08:56:14.240Z,99.99
2017-01-20T08:57:14.212Z,99.99
2017-01-20T08:58:14.191Z,99.99
2017-01-20T08:59:14.167Z,99.99
2017-01-20T09:00:14.143Z,99.99
2017-01-20T09:01:14.120Z,99.99
2017-01-20T09:02:14.095Z,99.99
2017-01-20T09:03:14.069Z,99.99
2017-01-20T09:04:14.051Z,99.99
2017-01-20T09:05:14.019Z,99.99
2017-01-20T09:06:13.994Z,99.99
2017-01-20T09:07:13.973Z,99.99
2017-01-20T09:08:13.946Z,99.99
2017-01-20T09:09:13.922Z,99.99
2017-01-20T09:10:13.900Z,99.99
2017-01-20T09:11:14.274Z,99.99
2017-01-20T09:12:13.860Z,99.99
2017-01-20T09:13:14.223Z,99.99
2017-01-20T09:14:13.807Z,99.99
2017-01-20T09:15:13.787Z,99.99
2017-01-20T09:16:13.768Z,99.99
2017-01-20T09:17:13.734Z,99.99
2017-01-20T09:18:13.714Z,99.99
2017-01-20T09:19:13.689Z,99.99
2017-01-20T09:20:13.662Z,99.99
2017-01-20T09:21:13.639Z,99.99
2017-01-20T09:22:13.667Z,99.99
2017-01-20T09:23:13.619Z,99.99
2017-01-20T09:24:13.572Z,99.99
2017-01-20T09:25:13.548Z,99.99
2017-01-20T09:26:13.527Z,99.99
2017-01-20T09:27:13.501Z,99.99
2017-01-20T09:28:13.479Z,99.99
2017-01-20T09:29:13.454Z,99.99
2017-01-20T09:30:13.436Z,99.99
2017-01-20T09:31:13.410Z,99.99
2017-01-20T09:32:13.393Z,99.99
2017-01-20T09:33:13.363Z,99.99
2017-01-20T09:34:13.344Z,99.99
2017-01-20T09:35:13.320Z,99.99
2017-01-20T09:36:13.296Z,99.99
2017-01-20T09:37:13.272Z,99.99
2017-01-20T09:38:13.249Z,99.99
2017-01-20T09:39:13.232Z,99.99
2017-01-20T09:40:13.204Z,99.99
2017-01-20T09:41:13.183Z,99.99
2017-01-20T09:42:13.162Z,99.99
2017-01-20T09:43:13.142Z,99.99
2017-01-20T09:44:13.162Z,99.99
2017-01-20T09:45:13.103Z,99.99
2017-01-20T09:46:13.070Z,99.99
2017-01-20T09:47:13.050Z,99.99
2017-01-20T09:48:13.024Z,99.99
2017-01-20T09:49:13.644Z,99.99
2017-01-20T09:50:12.979Z,99.99
2017-01-20T09:51:13.357Z,99.99
2017-01-20T09:52:12.938Z,99.99
2017-01-20T09:53:12.920Z,99.99
2017-01-20T09:54:12.899Z,99.99
2017-01-20T09:55:12.866Z,99.99
2017-01-20T09:56:12.850Z,99.99
2017-01-20T09:57:12.880Z,99.99
2017-01-20T09:58:12.799Z,99.99
2017-01-20T09:59:12.778Z,99.99
2017-01-20T10:00:12.780Z,99.99
2017-01-20T10:01:12.732Z,99.99
2017-01-20T10:02:12.728Z,99.99
2017-01-20T10:03:12.692Z,99.99
2017-01-20T10:04:12.665Z,99.99
2017-01-20T10:05:12.645Z,99.99
2017-01-20T10:06:13.048Z,99.99
2017-01-20T10:07:12.605Z,99.99
2017-01-20T10:08:12.580Z,99.99
2017-01-20T10:09:12.560Z,99.99
2017-01-20T10:10:12.545Z,99.99
2017-01-20T10:11:12.516Z,99.99
2017-01-20T10:12:12.496Z,99.99
2017-01-20T10:13:12.481Z,99.99
2017-01-20T10:14:12.455Z,99.99
2017-01-20T10:15:12.433Z,99.99
2017-01-20T10:16:12.412Z,99.99
2017-01-20T10:17:12.392Z,99.99
2017-01-20T10:18:12.373Z,99.99
2017-01-20T10:19:12.366Z,99.99
2017-01-20T10:20:12.336Z,99.99
2017-01-20T10:21:12.316Z,99.99
2017-01-20T10:22:12.296Z,99.99
2017-01-20T10:23:12.283Z,99.99
2017-01-20T10:24:12.260Z,99.39
2017-01-20T10:25:12.240Z,97.59
2017-01-20T10:26:12.221Z,92.52
2017-01-20T10:27:12.201Z,90.71
2017-01-20T10:28:12.182Z,91.66
2017-01-20T10:29:12.165Z,90.05
2017-01-20T10:30:12.152Z,91.28
2017-01-20T10:31:12.128Z,90.05
2017-01-20T10:32:12.113Z,88.62
2017-01-20T10:33:12.096Z,88.43
2017-01-20T10:34:12.077Z,89.1
2017-01-20T10:35:12.061Z,89.29
2017-01-20T10:36:12.044Z,88.81
2017-01-20T10:37:12.442Z,87.45
2017-01-20T10:38:12.010Z,89.43
2017-01-20T10:39:11.994Z,90.76
2017-01-20T10:40:11.974Z,89.62
2017-01-20T10:41:11.958Z,88.87
2017-01-20T10:42:11.944Z,88.48
2017-01-20T10:43:11.928Z,87.73
2017-01-20T10:44:11.913Z,86.63
2017-01-20T10:45:11.894Z,88.2
2017-01-20T10:46:11.876Z,88.01
2017-01-20T10:47:11.861Z,89.15
2017-01-20T10:48:11.846Z,87.82
2017-01-20T10:49:11.828Z,87.63
2017-01-20T10:50:11.811Z,87.16
2017-01-20T10:51:11.795Z,86.59
2017-01-20T10:52:11.780Z,87.35
2017-01-20T10:53:11.766Z,86.54
2017-01-20T10:54:12.198Z,84.36
2017-01-20T10:55:11.739Z,85.4
2017-01-20T10:56:11.722Z,86.44
2017-01-20T10:57:11.706Z,84.17
2017-01-20T10:58:11.695Z,85.44
2017-01-20T10:59:11.678Z,83.54
2017-01-20T11:00:11.663Z,84.01
2017-01-20T11:01:11.644Z,83.16
2017-01-20T11:02:11.632Z,83.07
2017-01-20T11:03:11.647Z,83.16
2017-01-20T11:04:11.621Z,83.54
2017-01-20T11:05:11.585Z,84.01
2017-01-20T11:06:11.572Z,83.39
2017-01-20T11:07:11.557Z,84.53
2017-01-20T11:08:11.544Z,83.39
2017-01-20T11:09:11.527Z,80.87
2017-01-20T11:10:11.517Z,79.63
2017-01-20T11:11:11.526Z,80.3
2017-01-20T11:12:11.490Z,78.69
2017-01-20T11:13:11.476Z,78.5
2017-01-20T11:14:11.460Z,80.21
2017-01-20T11:15:11.474Z,79.63
2017-01-20T11:16:11.432Z,77.26
2017-01-20T11:17:11.419Z,77.36
2017-01-20T11:18:11.406Z,77.2
2017-01-20T11:19:11.394Z,78.06
2017-01-20T11:20:11.380Z,76.54
2017-01-20T11:21:11.780Z,74.35
2017-01-20T11:22:11.355Z,73.3
2017-01-20T11:23:11.341Z,73.69
2017-01-20T11:24:11.329Z,73.69
2017-01-20T11:25:11.321Z,74.31
2017-01-20T11:26:11.369Z,75.55
2017-01-20T11:27:11.290Z,75.36
2017-01-20T11:28:11.281Z,74.98
2017-01-20T11:29:11.273Z,76.21
2017-01-20T11:30:11.254Z,76.12
2017-01-20T11:31:11.270Z,76.18
2017-01-20T11:32:11.230Z,75.23
2017-01-20T11:33:11.220Z,76.56
2017-01-20T11:34:11.249Z,75.13
2017-01-20T11:35:11.204Z,75.89
2017-01-20T11:36:11.183Z,76.37
2017-01-20T11:37:11.171Z,76.75
2017-01-20T11:38:11.156Z,76.08
2017-01-20T11:39:11.145Z,77.07
2017-01-20T11:40:11.133Z,77.55
2017-01-20T11:41:11.171Z,77.26
2017-01-20T11:42:11.104Z,77.07
2017-01-20T11:43:11.094Z,77.07
2017-01-20T11:44:11.083Z,76.88
2017-01-20T11:45:11.479Z,75.84
2017-01-20T11:46:11.065Z,74.79
2017-01-20T11:47:11.048Z,76.12
2017-01-20T11:48:11.033Z,74.88
2017-01-20T11:49:11.240Z,75.6
2017-01-20T11:50:11.013Z,77.41
2017-01-20T11:51:10.998Z,77.7
2017-01-20T11:52:10.986Z,78.61
2017-01-20T11:53:11.021Z,79.74
2017-01-20T11:54:10.958Z,80.6
2017-01-20T11:55:10.952Z,80.69
2017-01-20T11:56:10.945Z,81.7
2017-01-20T11:57:10.917Z,83.03
2017-01-20T11:58:10.903Z,84.64
2017-01-20T11:59:10.889Z,85.21
2017-01-20T12:00:10.886Z,86.16
2017-01-20T12:01:10.865Z,85.68
2017-01-20T12:02:10.851Z,87.68
2017-01-20T12:03:10.834Z,88.24
2017-01-20T12:04:10.816Z,88.15
2017-01-20T12:05:10.813Z,88.48
2017-01-20T12:06:10.792Z,88.01
2017-01-20T12:07:10.771Z,88.87
2017-01-20T12:08:10.832Z,88.96
2017-01-20T12:09:10.744Z,88.01
2017-01-20T12:10:10.723Z,87.82
2017-01-20T12:11:11.104Z,87.35
2017-01-20T12:12:10.703Z,87.25
2017-01-20T12:13:10.678Z,89.06
2017-01-20T12:14:10.664Z,88.87
2017-01-20T12:15:10.649Z,89.81
2017-01-20T12:16:10.632Z,89.62
2017-01-20T12:17:10.641Z,89.06
2017-01-20T12:18:10.599Z,90.43
2017-01-20T12:19:10.585Z,89.95
2017-01-20T12:20:10.576Z,88.72
2017-01-20T12:21:10.553Z,89.2
2017-01-20T12:22:10.936Z,86.2
2017-01-20T12:23:10.527Z,86.2
2017-01-20T12:24:10.562Z,85.25
2017-01-20T12:25:10.504Z,84.97
2017-01-20T12:26:10.483Z,83.11
2017-01-20T12:27:10.470Z,81.59
2017-01-20T12:28:10.460Z,82.29
2017-01-20T12:29:10.441Z,81.35
2017-01-20T12:30:10.431Z,79.44
2017-01-20T12:31:10.417Z,77.73
2017-01-20T12:32:10.407Z,77.39
2017-01-20T12:33:10.394Z,79.01
2017-01-20T12:34:10.385Z,78.63
2017-01-20T12:35:10.371Z,78.91
2017-01-20T12:36:10.357Z,79.2
2017-01-20T12:37:10.359Z,79.01
2017-01-20T12:38:10.345Z,77.62
2017-01-20T12:39:10.330Z,77.62
2017-01-20T12:40:10.320Z,77.43
2017-01-20T12:41:10.699Z,74.43
2017-01-20T12:42:10.302Z,73
2017-01-20T12:43:10.280Z,73.28
2017-01-20T12:44:10.267Z,74.04
2017-01-20T12:45:10.261Z,74.24
2017-01-20T12:46:10.252Z,73.85
2017-01-20T12:47:10.248Z,72.94
2017-01-20T12:48:10.225Z,74.08
2017-01-20T12:49:10.620Z,73.22
2017-01-20T12:50:10.209Z,72.27
2017-01-20T12:51:10.195Z,72.46
2017-01-20T12:52:10.187Z,72.46
2017-01-20T12:53:10.181Z,70.27